sensor_id;sensor_type;location;lat;lon;timestamp;temperature;humidity
70051;SHT30;57391;51.306;22.680;2022-08-21T00:01:22;20.27;74.13
70051;SHT30;57391;51.306;22.680;2022-08-21T00:03:54;20.24;74.18
70051;SHT30;57391;51.306;22.680;2022-08-21T00:06:22;20.22;74.29
70051;SHT30;57391;51.306;22.680;2022-08-21T00:08:51;20.19;74.42
70051;SHT30;57391;51.306;22.680;2022-08-21T00:11:18;20.16;74.50
70051;SHT30;57391;51.306;22.680;2022-08-21T00:13:45;20.12;74.59
70051;SHT30;57391;51.306;22.680;2022-08-21T00:16:12;20.09;74.62
70051;SHT30;57391;51.306;22.680;2022-08-21T00:18:39;20.05;74.72
70051;SHT30;57391;51.306;22.680;2022-08-21T00:21:07;20.03;74.82
70051;SHT30;57391;51.306;22.680;2022-08-21T00:23:34;20.00;74.90
70051;SHT30;57391;51.306;22.680;2022-08-21T00:26:02;19.99;74.90
70051;SHT30;57391;51.306;22.680;2022-08-21T00:28:30;19.97;74.90
70051;SHT30;57391;51.306;22.680;2022-08-21T00:30:57;19.93;74.93
70051;SHT30;57391;51.306;22.680;2022-08-21T00:33:25;19.90;74.97
70051;SHT30;57391;51.306;22.680;2022-08-21T00:35:53;19.87;75.12
70051;SHT30;57391;51.306;22.680;2022-08-21T00:38:20;19.83;75.21
70051;SHT30;57391;51.306;22.680;2022-08-21T00:40:48;19.80;75.32
70051;SHT30;57391;51.306;22.680;2022-08-21T00:43:26;19.74;75.47
70051;SHT30;57391;51.306;22.680;2022-08-21T00:45:58;19.71;75.60
70051;SHT30;57391;51.306;22.680;2022-08-21T00:48:26;19.67;75.64
70051;SHT30;57391;51.306;22.680;2022-08-21T00:53:40;19.61;75.83
70051;SHT30;57391;51.306;22.680;2022-08-21T00:56:11;19.57;75.97
70051;SHT30;57391;51.306;22.680;2022-08-21T00:58:40;19.50;76.13
70051;SHT30;57391;51.306;22.680;2022-08-21T01:01:09;19.46;76.25
70051;SHT30;57391;51.306;22.680;2022-08-21T01:03:36;19.43;76.42
70051;SHT30;57391;51.306;22.680;2022-08-21T01:06:04;19.42;76.49
70051;SHT30;57391;51.306;22.680;2022-08-21T01:08:32;19.39;76.59
70051;SHT30;57391;51.306;22.680;2022-08-21T01:11:01;19.39;76.60
70051;SHT30;57391;51.306;22.680;2022-08-21T01:13:31;19.37;76.67
70051;SHT30;57391;51.306;22.680;2022-08-21T01:16:04;19.34;76.76
70051;SHT30;57391;51.306;22.680;2022-08-21T01:18:36;19.32;76.83
70051;SHT30;57391;51.306;22.680;2022-08-21T01:23:36;19.28;77.03
70051;SHT30;57391;51.306;22.680;2022-08-21T01:26:07;19.27;77.11
70051;SHT30;57391;51.306;22.680;2022-08-21T01:28:40;19.27;77.12
70051;SHT30;57391;51.306;22.680;2022-08-21T01:31:15;19.26;77.14
70051;SHT30;57391;51.306;22.680;2022-08-21T01:33:46;19.26;77.14
70051;SHT30;57391;51.306;22.680;2022-08-21T01:36:13;19.25;77.20
70051;SHT30;57391;51.306;22.680;2022-08-21T01:38:40;19.23;77.20
70051;SHT30;57391;51.306;22.680;2022-08-21T01:41:07;19.23;77.15
70051;SHT30;57391;51.306;22.680;2022-08-21T01:43:34;19.24;77.19
70051;SHT30;57391;51.306;22.680;2022-08-21T01:46:02;19.23;77.20
70051;SHT30;57391;51.306;22.680;2022-08-21T01:48:30;19.20;77.20
70051;SHT30;57391;51.306;22.680;2022-08-21T01:50:57;19.20;77.24
70051;SHT30;57391;51.306;22.680;2022-08-21T01:53:26;19.18;77.20
70051;SHT30;57391;51.306;22.680;2022-08-21T01:55:53;19.17;77.19
70051;SHT30;57391;51.306;22.680;2022-08-21T01:58:20;19.16;77.11
70051;SHT30;57391;51.306;22.680;2022-08-21T02:00:48;19.15;77.11
70051;SHT30;57391;51.306;22.680;2022-08-21T02:03:20;19.13;76.98
70051;SHT30;57391;51.306;22.680;2022-08-21T02:05:47;19.11;77.00
70051;SHT30;57391;51.306;22.680;2022-08-21T02:08:14;19.09;76.95
70051;SHT30;57391;51.306;22.680;2022-08-21T02:10:41;19.07;76.95
70051;SHT30;57391;51.306;22.680;2022-08-21T02:13:08;19.05;77.19
70051;SHT30;57391;51.306;22.680;2022-08-21T02:15:36;19.00;77.44
70051;SHT30;57391;51.306;22.680;2022-08-21T02:18:04;18.96;77.59
70051;SHT30;57391;51.306;22.680;2022-08-21T02:20:34;18.91;77.70
70051;SHT30;57391;51.306;22.680;2022-08-21T02:23:06;18.86;77.82
70051;SHT30;57391;51.306;22.680;2022-08-21T02:25:36;18.83;77.95
70051;SHT30;57391;51.306;22.680;2022-08-21T02:28:06;18.80;78.10
70051;SHT30;57391;51.306;22.680;2022-08-21T02:30:39;18.76;78.17
70051;SHT30;57391;51.306;22.680;2022-08-21T02:33:11;18.71;78.28
70051;SHT30;57391;51.306;22.680;2022-08-21T02:35:40;18.68;78.46
70051;SHT30;57391;51.306;22.680;2022-08-21T02:38:10;18.64;78.56
70051;SHT30;57391;51.306;22.680;2022-08-21T02:40:43;18.60;78.63
70051;SHT30;57391;51.306;22.680;2022-08-21T02:43:14;18.59;78.67
70051;SHT30;57391;51.306;22.680;2022-08-21T02:45:43;18.59;78.63
70051;SHT30;57391;51.306;22.680;2022-08-21T02:48:13;18.57;78.65
70051;SHT30;57391;51.306;22.680;2022-08-21T02:50:45;18.54;78.75
70051;SHT30;57391;51.306;22.680;2022-08-21T02:53:18;18.51;78.88
70051;SHT30;57391;51.306;22.680;2022-08-21T02:55:47;18.49;78.98
70051;SHT30;57391;51.306;22.680;2022-08-21T02:58:18;18.47;79.09
70051;SHT30;57391;51.306;22.680;2022-08-21T03:00:50;18.44;79.19
70051;SHT30;57391;51.306;22.680;2022-08-21T03:03:18;18.42;79.22
70051;SHT30;57391;51.306;22.680;2022-08-21T03:05:47;18.38;79.33
70051;SHT30;57391;51.306;22.680;2022-08-21T03:08:15;18.35;79.44
70051;SHT30;57391;51.306;22.680;2022-08-21T03:10:47;18.33;79.52
70051;SHT30;57391;51.306;22.680;2022-08-21T03:13:17;18.31;79.58
70051;SHT30;57391;51.306;22.680;2022-08-21T03:15:47;18.30;79.61
70051;SHT30;57391;51.306;22.680;2022-08-21T03:18:16;18.28;79.64
70051;SHT30;57391;51.306;22.680;2022-08-21T03:20:44;18.27;79.68
70051;SHT30;57391;51.306;22.680;2022-08-21T03:23:11;18.25;79.72
70051;SHT30;57391;51.306;22.680;2022-08-21T03:25:40;18.25;79.80
70051;SHT30;57391;51.306;22.680;2022-08-21T03:28:09;18.22;79.85
70051;SHT30;57391;51.306;22.680;2022-08-21T03:30:41;18.20;79.91
70051;SHT30;57391;51.306;22.680;2022-08-21T03:33:11;18.20;79.94
70051;SHT30;57391;51.306;22.680;2022-08-21T03:35:39;18.20;79.98
70051;SHT30;57391;51.306;22.680;2022-08-21T03:38:08;18.21;79.99
70051;SHT30;57391;51.306;22.680;2022-08-21T03:40:36;18.21;80.07
70051;SHT30;57391;51.306;22.680;2022-08-21T03:43:03;18.22;80.02
70051;SHT30;57391;51.306;22.680;2022-08-21T03:45:31;18.25;80.03
70051;SHT30;57391;51.306;22.680;2022-08-21T03:48:00;18.28;80.04
70051;SHT30;57391;51.306;22.680;2022-08-21T03:50:32;18.28;80.04
70051;SHT30;57391;51.306;22.680;2022-08-21T03:53:04;18.29;80.10
70051;SHT30;57391;51.306;22.680;2022-08-21T03:55:32;18.32;80.10
70051;SHT30;57391;51.306;22.680;2022-08-21T03:57:59;18.43;80.00
70051;SHT30;57391;51.306;22.680;2022-08-21T04:00:26;18.61;79.78
70051;SHT30;57391;51.306;22.680;2022-08-21T04:02:53;18.83;79.38
70051;SHT30;57391;51.306;22.680;2022-08-21T04:05:21;19.03;79.04
70051;SHT30;57391;51.306;22.680;2022-08-21T04:07:57;19.27;78.59
70051;SHT30;57391;51.306;22.680;2022-08-21T04:10:28;19.54;78.07
70051;SHT30;57391;51.306;22.680;2022-08-21T04:12:59;19.86;77.38
70051;SHT30;57391;51.306;22.680;2022-08-21T04:15:27;20.19;76.57
70051;SHT30;57391;51.306;22.680;2022-08-21T04:17:54;20.50;75.80
70051;SHT30;57391;51.306;22.680;2022-08-21T04:20:21;20.80;74.98
70051;SHT30;57391;51.306;22.680;2022-08-21T04:22:50;21.02;74.31
70051;SHT30;57391;51.306;22.680;2022-08-21T04:25:18;21.22;73.54
70051;SHT30;57391;51.306;22.680;2022-08-21T04:27:48;21.54;72.85
70051;SHT30;57391;51.306;22.680;2022-08-21T04:30:17;21.88;71.88
70051;SHT30;57391;51.306;22.680;2022-08-21T04:32:47;21.87;71.38
70051;SHT30;57391;51.306;22.680;2022-08-21T04:35:20;21.65;71.32
70051;SHT30;57391;51.306;22.680;2022-08-21T04:37:48;21.40;71.58
70051;SHT30;57391;51.306;22.680;2022-08-21T04:40:16;21.19;71.89
70051;SHT30;57391;51.306;22.680;2022-08-21T04:42:46;21.02;72.26
70051;SHT30;57391;51.306;22.680;2022-08-21T04:48:14;20.75;72.92
70051;SHT30;57391;51.306;22.680;2022-08-21T04:56:00;20.55;73.60
70051;SHT30;57391;51.306;22.680;2022-08-21T04:58:35;20.60;73.80
70051;SHT30;57391;51.306;22.680;2022-08-21T05:01:07;20.73;73.74
70051;SHT30;57391;51.306;22.680;2022-08-21T05:03:42;20.92;73.50
70051;SHT30;57391;51.306;22.680;2022-08-21T05:06:11;21.06;73.39
70051;SHT30;57391;51.306;22.680;2022-08-21T05:08:42;21.19;73.03
70051;SHT30;57391;51.306;22.680;2022-08-21T05:11:13;21.33;72.95
70051;SHT30;57391;51.306;22.680;2022-08-21T05:13:41;21.64;72.21
70051;SHT30;57391;51.306;22.680;2022-08-21T05:16:09;22.04;71.35
70051;SHT30;57391;51.306;22.680;2022-08-21T05:18:36;22.31;70.52
70051;SHT30;57391;51.306;22.680;2022-08-21T05:21:03;22.12;70.09
70051;SHT30;57391;51.306;22.680;2022-08-21T05:23:31;21.92;70.99
70051;SHT30;57391;51.306;22.680;2022-08-21T05:25:58;21.84;71.18
70051;SHT30;57391;51.306;22.680;2022-08-21T05:28:25;22.12;71.00
70051;SHT30;57391;51.306;22.680;2022-08-21T05:30:52;22.85;69.28
70051;SHT30;57391;51.306;22.680;2022-08-21T05:33:20;23.22;67.79
70051;SHT30;57391;51.306;22.680;2022-08-21T05:35:49;23.17;68.09
70051;SHT30;57391;51.306;22.680;2022-08-21T05:38:18;22.96;68.40
70051;SHT30;57391;51.306;22.680;2022-08-21T05:40:46;22.77;68.86
70051;SHT30;57391;51.306;22.680;2022-08-21T05:43:13;22.86;69.30
70051;SHT30;57391;51.306;22.680;2022-08-21T05:45:41;23.45;68.07
70051;SHT30;57391;51.306;22.680;2022-08-21T05:48:30;24.11;65.94
70051;SHT30;57391;51.306;22.680;2022-08-21T05:50:56;24.50;64.03
70051;SHT30;57391;51.306;22.680;2022-08-21T05:53:24;24.61;63.92
70051;SHT30;57391;51.306;22.680;2022-08-21T05:55:51;24.33;64.39
70051;SHT30;57391;51.306;22.680;2022-08-21T05:58:19;24.05;65.08
70051;SHT30;57391;51.306;22.680;2022-08-21T06:00:49;23.77;65.47
70051;SHT30;57391;51.306;22.680;2022-08-21T06:03:19;23.70;66.08
70051;SHT30;57391;51.306;22.680;2022-08-21T06:05:53;24.15;65.32
70051;SHT30;57391;51.306;22.680;2022-08-21T06:08:22;24.77;63.59
70051;SHT30;57391;51.306;22.680;2022-08-21T06:10:51;25.24;62.61
70051;SHT30;57391;51.306;22.680;2022-08-21T06:13:20;25.77;62.07
70051;SHT30;57391;51.306;22.680;2022-08-21T06:15:49;26.28;60.68
70051;SHT30;57391;51.306;22.680;2022-08-21T06:18:17;26.45;60.11
70051;SHT30;57391;51.306;22.680;2022-08-21T06:20:44;26.36;60.30
70051;SHT30;57391;51.306;22.680;2022-08-21T06:23:11;26.19;60.29
70051;SHT30;57391;51.306;22.680;2022-08-21T06:25:39;26.10;60.70
70051;SHT30;57391;51.306;22.680;2022-08-21T06:28:07;26.14;60.57
70051;SHT30;57391;51.306;22.680;2022-08-21T06:30:37;26.28;59.64
70051;SHT30;57391;51.306;22.680;2022-08-21T06:33:05;26.57;58.52
70051;SHT30;57391;51.306;22.680;2022-08-21T06:35:33;26.77;57.81
70051;SHT30;57391;51.306;22.680;2022-08-21T06:38:01;26.87;57.23
70051;SHT30;57391;51.306;22.680;2022-08-21T06:40:30;27.08;56.95
70051;SHT30;57391;51.306;22.680;2022-08-21T06:42:58;27.29;56.22
70051;SHT30;57391;51.306;22.680;2022-08-21T06:45:36;27.50;56.17
70051;SHT30;57391;51.306;22.680;2022-08-21T06:48:04;27.79;55.99
70051;SHT30;57391;51.306;22.680;2022-08-21T06:50:33;28.09;54.97
70051;SHT30;57391;51.306;22.680;2022-08-21T06:53:06;28.23;54.54
70051;SHT30;57391;51.306;22.680;2022-08-21T06:55:37;27.94;54.40
70051;SHT30;57391;51.306;22.680;2022-08-21T06:58:05;27.43;55.64
70051;SHT30;57391;51.306;22.680;2022-08-21T07:00:33;27.23;56.48
70051;SHT30;57391;51.306;22.680;2022-08-21T07:03:04;27.23;56.85
70051;SHT30;57391;51.306;22.680;2022-08-21T07:05:32;27.09;56.44
70051;SHT30;57391;51.306;22.680;2022-08-21T07:07:59;27.04;56.87
70051;SHT30;57391;51.306;22.680;2022-08-21T07:10:26;27.03;57.26
70051;SHT30;57391;51.306;22.680;2022-08-21T07:12:54;27.14;57.04
70051;SHT30;57391;51.306;22.680;2022-08-21T07:15:22;27.44;56.92
70051;SHT30;57391;51.306;22.680;2022-08-21T07:17:49;27.92;55.70
70051;SHT30;57391;51.306;22.680;2022-08-21T07:20:16;28.07;53.79
70051;SHT30;57391;51.306;22.680;2022-08-21T07:22:43;28.06;53.81
70051;SHT30;57391;51.306;22.680;2022-08-21T07:25:11;28.03;53.95
70051;SHT30;57391;51.306;22.680;2022-08-21T07:27:38;28.12;54.22
70051;SHT30;57391;51.306;22.680;2022-08-21T07:30:05;28.37;53.62
70051;SHT30;57391;51.306;22.680;2022-08-21T07:32:33;28.60;53.27
70051;SHT30;57391;51.306;22.680;2022-08-21T07:35:00;28.66;52.98
70051;SHT30;57391;51.306;22.680;2022-08-21T07:37:28;28.91;52.45
70051;SHT30;57391;51.306;22.680;2022-08-21T07:39:55;28.94;51.68
70051;SHT30;57391;51.306;22.680;2022-08-21T07:42:23;28.83;51.86
70051;SHT30;57391;51.306;22.680;2022-08-21T07:44:50;28.67;52.50
70051;SHT30;57391;51.306;22.680;2022-08-21T07:47:17;28.47;52.81
70051;SHT30;57391;51.306;22.680;2022-08-21T07:49:44;28.45;53.12
70051;SHT30;57391;51.306;22.680;2022-08-21T07:52:12;28.38;53.17
70051;SHT30;57391;51.306;22.680;2022-08-21T07:54:39;28.23;52.89
70051;SHT30;57391;51.306;22.680;2022-08-21T07:57:07;28.17;53.36
70051;SHT30;57391;51.306;22.680;2022-08-21T07:59:34;28.32;53.33
70051;SHT30;57391;51.306;22.680;2022-08-21T08:02:01;28.25;52.62
70051;SHT30;57391;51.306;22.680;2022-08-21T08:04:29;28.14;52.93
70051;SHT30;57391;51.306;22.680;2022-08-21T08:06:56;28.08;53.37
70051;SHT30;57391;51.306;22.680;2022-08-21T08:09:23;28.03;53.45
70051;SHT30;57391;51.306;22.680;2022-08-21T08:11:50;28.27;53.28
70051;SHT30;57391;51.306;22.680;2022-08-21T08:14:17;28.43;52.79
70051;SHT30;57391;51.306;22.680;2022-08-21T08:16:44;28.50;52.84
70051;SHT30;57391;51.306;22.680;2022-08-21T08:19:11;28.65;52.98
70051;SHT30;57391;51.306;22.680;2022-08-21T08:21:38;28.96;52.62
70051;SHT30;57391;51.306;22.680;2022-08-21T08:24:06;29.17;51.58
70051;SHT30;57391;51.306;22.680;2022-08-21T08:26:33;29.40;51.19
70051;SHT30;57391;51.306;22.680;2022-08-21T08:29:00;29.56;51.13
70051;SHT30;57391;51.306;22.680;2022-08-21T08:31:28;29.56;49.93
70051;SHT30;57391;51.306;22.680;2022-08-21T08:33:55;29.66;50.52
70051;SHT30;57391;51.306;22.680;2022-08-21T08:36:30;29.81;50.37
70051;SHT30;57391;51.306;22.680;2022-08-21T08:39:05;30.09;49.73
70051;SHT30;57391;51.306;22.680;2022-08-21T08:41:32;30.42;49.22
70051;SHT30;57391;51.306;22.680;2022-08-21T08:44:03;30.49;48.20
70051;SHT30;57391;51.306;22.680;2022-08-21T08:49:31;30.12;48.92
70051;SHT30;57391;51.306;22.680;2022-08-21T08:58:03;30.24;49.44
70051;SHT30;57391;51.306;22.680;2022-08-21T09:00:31;30.17;48.39
70051;SHT30;57391;51.306;22.680;2022-08-21T09:03:01;29.86;48.22
70051;SHT30;57391;51.306;22.680;2022-08-21T09:05:39;29.54;48.95
70051;SHT30;57391;51.306;22.680;2022-08-21T09:08:36;29.62;49.35
70051;SHT30;57391;51.306;22.680;2022-08-21T09:20:15;29.81;48.30
70051;SHT30;57391;51.306;22.680;2022-08-21T09:26:14;29.55;49.07
70051;SHT30;57391;51.306;22.680;2022-08-21T09:28:54;29.35;49.12
70051;SHT30;57391;51.306;22.680;2022-08-21T09:31:29;29.24;49.69
70051;SHT30;57391;51.306;22.680;2022-08-21T09:34:02;29.05;50.38
70051;SHT30;57391;51.306;22.680;2022-08-21T09:36:43;29.17;51.19
70051;SHT30;57391;51.306;22.680;2022-08-21T09:42:10;29.23;50.51
70051;SHT30;57391;51.306;22.680;2022-08-21T09:44:38;29.31;50.89
70051;SHT30;57391;51.306;22.680;2022-08-21T09:47:10;29.62;50.50
70051;SHT30;57391;51.306;22.680;2022-08-21T09:49:42;29.84;49.80
70051;SHT30;57391;51.306;22.680;2022-08-21T09:52:20;29.86;49.11
70051;SHT30;57391;51.306;22.680;2022-08-21T09:54:52;29.89;49.62
70051;SHT30;57391;51.306;22.680;2022-08-21T09:57:26;29.97;49.35
70051;SHT30;57391;51.306;22.680;2022-08-21T10:00:10;30.08;49.56
70051;SHT30;57391;51.306;22.680;2022-08-21T10:02:51;30.24;48.78
70051;SHT30;57391;51.306;22.680;2022-08-21T10:05:20;30.08;48.09
70051;SHT30;57391;51.306;22.680;2022-08-21T10:07:51;30.06;48.84
70051;SHT30;57391;51.306;22.680;2022-08-21T10:10:29;30.07;48.21
70051;SHT30;57391;51.306;22.680;2022-08-21T10:13:21;29.99;48.32
70051;SHT30;57391;51.306;22.680;2022-08-21T10:18:48;30.36;48.78
70051;SHT30;57391;51.306;22.680;2022-08-21T10:24:33;30.41;47.89
70051;SHT30;57391;51.306;22.680;2022-08-21T10:27:29;30.38;48.09
70051;SHT30;57391;51.306;22.680;2022-08-21T10:30:27;30.45;48.39
70051;SHT30;57391;51.306;22.680;2022-08-21T10:36:12;30.71;48.74
70051;SHT30;57391;51.306;22.680;2022-08-21T10:50:10;31.23;45.70
70051;SHT30;57391;51.306;22.680;2022-08-21T10:55:56;30.75;46.77
70051;SHT30;57391;51.306;22.680;2022-08-21T11:01:23;30.63;46.48
70051;SHT30;57391;51.306;22.680;2022-08-21T11:04:24;30.62;47.06
70051;SHT30;57391;51.306;22.680;2022-08-21T11:07:13;30.70;46.67
70051;SHT30;57391;51.306;22.680;2022-08-21T11:09:49;30.74;46.92
70051;SHT30;57391;51.306;22.680;2022-08-21T11:12:26;30.76;46.47
70051;SHT30;57391;51.306;22.680;2022-08-21T11:15:22;30.90;47.03
70051;SHT30;57391;51.306;22.680;2022-08-21T11:18:15;31.05;45.89
70051;SHT30;57391;51.306;22.680;2022-08-21T11:20:59;31.01;45.69
70051;SHT30;57391;51.306;22.680;2022-08-21T11:26:30;30.87;45.66
70051;SHT30;57391;51.306;22.680;2022-08-21T11:46:57;31.36;45.70
70051;SHT30;57391;51.306;22.680;2022-08-21T11:49:42;31.42;45.26
70051;SHT30;57391;51.306;22.680;2022-08-21T11:52:42;31.33;45.28
70051;SHT30;57391;51.306;22.680;2022-08-21T11:55:25;31.26;45.57
70051;SHT30;57391;51.306;22.680;2022-08-21T12:00:41;31.22;45.44
70051;SHT30;57391;51.306;22.680;2022-08-21T12:03:29;31.20;45.47
70051;SHT30;57391;51.306;22.680;2022-08-21T12:06:05;31.08;45.72
70051;SHT30;57391;51.306;22.680;2022-08-21T12:08:43;30.95;45.35
70051;SHT30;57391;51.306;22.680;2022-08-21T12:13:54;30.92;46.42
70051;SHT30;57391;51.306;22.680;2022-08-21T12:16:30;30.92;45.33
70051;SHT30;57391;51.306;22.680;2022-08-21T12:19:14;30.83;45.25
70051;SHT30;57391;51.306;22.680;2022-08-21T12:21:51;30.79;45.96
70051;SHT30;57391;51.306;22.680;2022-08-21T12:29:55;30.62;46.23
70051;SHT30;57391;51.306;22.680;2022-08-21T12:32:42;30.44;46.19
70051;SHT30;57391;51.306;22.680;2022-08-21T12:35:23;30.20;46.45
70051;SHT30;57391;51.306;22.680;2022-08-21T12:38:00;30.09;47.24
70051;SHT30;57391;51.306;22.680;2022-08-21T12:40:39;30.07;47.30
70051;SHT30;57391;51.306;22.680;2022-08-21T12:43:18;29.95;46.72
70051;SHT30;57391;51.306;22.680;2022-08-21T12:45:52;29.84;47.32
70051;SHT30;57391;51.306;22.680;2022-08-21T12:51:10;30.04;47.76
70051;SHT30;57391;51.306;22.680;2022-08-21T12:56:22;30.14;46.25
70051;SHT30;57391;51.306;22.680;2022-08-21T12:59:02;29.94;46.61
70051;SHT30;57391;51.306;22.680;2022-08-21T13:04:10;29.95;47.12
70051;SHT30;57391;51.306;22.680;2022-08-21T13:06:47;29.92;47.65
70051;SHT30;57391;51.306;22.680;2022-08-21T13:09:24;29.92;47.55
70051;SHT30;57391;51.306;22.680;2022-08-21T13:11:57;30.07;48.98
70051;SHT30;57391;51.306;22.680;2022-08-21T13:14:37;30.19;47.99
70051;SHT30;57391;51.306;22.680;2022-08-21T13:17:09;30.14;47.12
70051;SHT30;57391;51.306;22.680;2022-08-21T13:19:38;29.94;46.43
70051;SHT30;57391;51.306;22.680;2022-08-21T13:22:11;29.68;47.62
70051;SHT30;57391;51.306;22.680;2022-08-21T13:24:41;29.52;47.57
70051;SHT30;57391;51.306;22.680;2022-08-21T13:27:22;29.32;47.39
70051;SHT30;57391;51.306;22.680;2022-08-21T13:30:06;29.11;48.35
70051;SHT30;57391;51.306;22.680;2022-08-21T13:32:47;29.03;48.55
70051;SHT30;57391;51.306;22.680;2022-08-21T13:35:23;28.97;48.25
70051;SHT30;57391;51.306;22.680;2022-08-21T13:38:15;28.97;48.57
70051;SHT30;57391;51.306;22.680;2022-08-21T13:40:51;28.98;48.57
70051;SHT30;57391;51.306;22.680;2022-08-21T13:43:30;28.90;48.58
70051;SHT30;57391;51.306;22.680;2022-08-21T13:46:06;28.82;48.81
70051;SHT30;57391;51.306;22.680;2022-08-21T13:48:38;28.72;49.44
70051;SHT30;57391;51.306;22.680;2022-08-21T13:51:07;28.74;49.04
70051;SHT30;57391;51.306;22.680;2022-08-21T13:53:44;28.67;48.95
70051;SHT30;57391;51.306;22.680;2022-08-21T13:56:28;28.61;49.11
70051;SHT30;57391;51.306;22.680;2022-08-21T13:59:08;28.58;48.96
70051;SHT30;57391;51.306;22.680;2022-08-21T14:01:37;28.53;49.17
70051;SHT30;57391;51.306;22.680;2022-08-21T14:07:27;28.48;49.80
70051;SHT30;57391;51.306;22.680;2022-08-21T14:10:04;28.58;49.92
70051;SHT30;57391;51.306;22.680;2022-08-21T14:12:56;28.70;49.96
70051;SHT30;57391;51.306;22.680;2022-08-21T14:15:30;28.68;49.56
70051;SHT30;57391;51.306;22.680;2022-08-21T14:18:13;28.69;50.25
70051;SHT30;57391;51.306;22.680;2022-08-21T14:20:44;28.72;49.92
70051;SHT30;57391;51.306;22.680;2022-08-21T14:23:23;28.73;49.54
70051;SHT30;57391;51.306;22.680;2022-08-21T14:25:53;28.80;49.74
70051;SHT30;57391;51.306;22.680;2022-08-21T14:28:29;28.84;49.68
70051;SHT30;57391;51.306;22.680;2022-08-21T14:31:11;28.94;49.55
70051;SHT30;57391;51.306;22.680;2022-08-21T14:33:47;28.99;49.14
70051;SHT30;57391;51.306;22.680;2022-08-21T14:36:14;28.91;48.64
70051;SHT30;57391;51.306;22.680;2022-08-21T14:38:41;28.82;48.78
70051;SHT30;57391;51.306;22.680;2022-08-21T14:41:13;28.81;48.87
70051;SHT30;57391;51.306;22.680;2022-08-21T14:43:52;28.73;48.79
70051;SHT30;57391;51.306;22.680;2022-08-21T14:46:23;28.49;49.15
70051;SHT30;57391;51.306;22.680;2022-08-21T14:48:55;28.28;49.87
70051;SHT30;57391;51.306;22.680;2022-08-21T14:51:22;28.16;50.39
70051;SHT30;57391;51.306;22.680;2022-08-21T14:53:49;28.06;50.93
70051;SHT30;57391;51.306;22.680;2022-08-21T14:56:36;28.05;51.45
70051;SHT30;57391;51.306;22.680;2022-08-21T14:59:05;28.10;51.55
70051;SHT30;57391;51.306;22.680;2022-08-21T15:01:36;28.14;51.51
70051;SHT30;57391;51.306;22.680;2022-08-21T15:04:05;28.15;51.16
70051;SHT30;57391;51.306;22.680;2022-08-21T15:06:32;28.08;50.49
70051;SHT30;57391;51.306;22.680;2022-08-21T15:08:59;27.96;50.78
70051;SHT30;57391;51.306;22.680;2022-08-21T15:11:29;27.91;50.95
70051;SHT30;57391;51.306;22.680;2022-08-21T15:13:57;27.87;50.43
70051;SHT30;57391;51.306;22.680;2022-08-21T15:16:29;27.75;50.79
70051;SHT30;57391;51.306;22.680;2022-08-21T15:18:57;27.66;50.73
70051;SHT30;57391;51.306;22.680;2022-08-21T15:21:25;27.56;51.53
70051;SHT30;57391;51.306;22.680;2022-08-21T15:23:52;27.51;52.97
70051;SHT30;57391;51.306;22.680;2022-08-21T15:26:20;27.38;53.65
70051;SHT30;57391;51.306;22.680;2022-08-21T15:28:50;27.31;54.00
70051;SHT30;57391;51.306;22.680;2022-08-21T15:31:17;27.26;53.99
70051;SHT30;57391;51.306;22.680;2022-08-21T15:33:44;27.19;53.84
70051;SHT30;57391;51.306;22.680;2022-08-21T15:36:11;27.09;53.95
70051;SHT30;57391;51.306;22.680;2022-08-21T15:38:38;27.00;54.27
70051;SHT30;57391;51.306;22.680;2022-08-21T15:41:05;26.95;54.56
70051;SHT30;57391;51.306;22.680;2022-08-21T15:43:35;26.92;54.62
70051;SHT30;57391;51.306;22.680;2022-08-21T15:46:17;26.88;54.86
70051;SHT30;57391;51.306;22.680;2022-08-21T15:48:46;26.76;55.00
70051;SHT30;57391;51.306;22.680;2022-08-21T15:51:15;26.67;55.39
70051;SHT30;57391;51.306;22.680;2022-08-21T15:53:43;26.57;55.58
70051;SHT30;57391;51.306;22.680;2022-08-21T15:56:23;26.53;55.94
70051;SHT30;57391;51.306;22.680;2022-08-21T15:58:57;26.48;56.07
70051;SHT30;57391;51.306;22.680;2022-08-21T16:01:34;26.42;56.34
70051;SHT30;57391;51.306;22.680;2022-08-21T16:04:03;26.40;56.56
70051;SHT30;57391;51.306;22.680;2022-08-21T16:06:31;26.36;56.75
70051;SHT30;57391;51.306;22.680;2022-08-21T16:08:58;26.27;56.89
70051;SHT30;57391;51.306;22.680;2022-08-21T16:11:26;26.22;57.17
70051;SHT30;57391;51.306;22.680;2022-08-21T16:13:54;26.14;57.43
70051;SHT30;57391;51.306;22.680;2022-08-21T16:16:22;26.06;57.66
70051;SHT30;57391;51.306;22.680;2022-08-21T16:18:51;25.92;58.01
70051;SHT30;57391;51.306;22.680;2022-08-21T16:21:19;25.85;58.40
70051;SHT30;57391;51.306;22.680;2022-08-21T16:23:46;25.77;58.80
70051;SHT30;57391;51.306;22.680;2022-08-21T16:26:13;25.66;59.25
70051;SHT30;57391;51.306;22.680;2022-08-21T16:29:01;25.54;59.73
70051;SHT30;57391;51.306;22.680;2022-08-21T16:31:49;25.39;60.18
70051;SHT30;57391;51.306;22.680;2022-08-21T16:34:17;25.29;60.49
70051;SHT30;57391;51.306;22.680;2022-08-21T16:36:46;25.20;60.79
70051;SHT30;57391;51.306;22.680;2022-08-21T16:39:13;25.13;60.95
70051;SHT30;57391;51.306;22.680;2022-08-21T16:41:41;25.08;61.19
70051;SHT30;57391;51.306;22.680;2022-08-21T16:44:08;25.02;61.47
70051;SHT30;57391;51.306;22.680;2022-08-21T16:46:37;24.95;61.71
70051;SHT30;57391;51.306;22.680;2022-08-21T16:49:07;24.88;61.92
70051;SHT30;57391;51.306;22.680;2022-08-21T16:51:36;24.82;62.16
70051;SHT30;57391;51.306;22.680;2022-08-21T16:54:05;24.77;62.37
70051;SHT30;57391;51.306;22.680;2022-08-21T16:56:33;24.71;62.63
70051;SHT30;57391;51.306;22.680;2022-08-21T16:59:00;24.65;62.81
70051;SHT30;57391;51.306;22.680;2022-08-21T17:01:28;24.62;62.91
70051;SHT30;57391;51.306;22.680;2022-08-21T17:03:58;24.59;62.92
70051;SHT30;57391;51.306;22.680;2022-08-21T17:06:26;24.57;63.07
70051;SHT30;57391;51.306;22.680;2022-08-21T17:08:56;24.53;63.14
70051;SHT30;57391;51.306;22.680;2022-08-21T17:11:26;24.46;63.25
70051;SHT30;57391;51.306;22.680;2022-08-21T17:14:01;24.38;63.39
70051;SHT30;57391;51.306;22.680;2022-08-21T17:16:37;24.31;63.51
70051;SHT30;57391;51.306;22.680;2022-08-21T17:19:07;24.26;63.60
70051;SHT30;57391;51.306;22.680;2022-08-21T17:21:34;24.20;63.77
70051;SHT30;57391;51.306;22.680;2022-08-21T17:24:01;24.15;63.93
70051;SHT30;57391;51.306;22.680;2022-08-21T17:26:30;24.09;64.09
70051;SHT30;57391;51.306;22.680;2022-08-21T17:28:57;24.05;64.24